PH-0048 weather

Union Bank Plaza Heliport
Pasig, Philippines

Public forecast

Using degrees Celsius for public forecast. Weather courtesy of forecast.io.

Closest aviation weather report (METAR) to Union Bank Plaza Heliport

Closest report is Ninoy Aquino International Airport, 5.4 nm (10.0 km) SSW. Retrieved 2019/11/18 19:00 UTC (22 minutes ago):

RPLL 181900Z 01004KT 9999 FEW025 SCT100 27/23 Q1007 NOSIG RMK A2974

Closest aviation forecast (TAF) to Union Bank Plaza Heliport

Closest forecast is Ninoy Aquino International Airport, 5.4 nm (10.0 km) SSW. Retrieved 2019/11/18 18:00 UTC (1 hour ago):

TAF RPLL 181700Z 1818/1924 25006KT 9999 FEW023 SCT100 BKN300 TX31/1906Z TN26/1821Z TEMPO 1818/1824 22004KT SCT023 BKN090 TEMPO 1900/1906 29012KT FEW023 BKN100